• Join FlightAware (Why Join?)
  • Login
  • US Flag 
04:37AM EDT


 

Airport Tracker/Info


-or-


 

Live Flight TrackerFlight Track Log ✈ ASA2 ✈ 01-Jul-2013 ✈ KSEA - KDCA

Flight Track Log - Related Links

Times and Time Zones

All times are in EDT time to prevent confusion due to time zone crossing. See the ASA2 flight status page for this flight to view local times or setup timezone preferences in your user account.

Time Position Orientation Groundspeed Altitude Reporting Facility
EDT Latitude Longitude Course Direction KTS MPH feet Rate Location/Type
05:12PM 47.4700 -122.3075 North 181 208 1,500  Level Seattle Center
05:12PM 47.5011 -122.3069 North 186 214 2,500 2,040 Climbing Seattle Center
05:15PM 47.6122 -122.2172 29° Northeast 266 306 7,400 1,800 Climbing Seattle Center
05:16PM 47.5911 -122.1111 106° East 272 313 8,600 1,380 Climbing Seattle Center
05:17PM 47.5486 -122.0103 122° Southeast 269 310 10,300 1,620 Climbing Seattle Center
05:18PM 47.5056 -121.9036 121° Southeast 308 354 11,900 1,860 Climbing Seattle Center
05:19PM 47.4931 -121.7717 98° East 337 388 14,100 2,040 Climbing Seattle Center
05:20PM 47.4964 -121.6231 88° East 364 419 16,100 1,800 Climbing Seattle Center
05:21PM 47.4994 -121.4878 88° East 372 428 17,900 1,920 Climbing Seattle Center
05:22PM 47.5011 -121.2992 89° East 383 441 20,100 1,920 Climbing Seattle Center
05:23PM 47.5033 -121.1347 89° East 400 460 21,900 1,680 Climbing Seattle Center
05:24PM 47.5064 -120.9636 88° East 416 479 23,600 1,620 Climbing Seattle Center
05:25PM 47.5089 -120.7858 89° East 424 488 25,200 1,380 Climbing Seattle Center
05:26PM 47.5114 -120.6061 89° East 436 502 26,500 1,320 Climbing Seattle Center
05:27PM 47.5122 -120.4231 90° East 444 511 28,000 1,320 Climbing Seattle Center
05:28PM 47.5131 -120.2375 90° East 451 519 29,300 1,080 Climbing Seattle Center
05:29PM 47.5164 -120.0475 88° East 461 531 30,300 960 Climbing Seattle Center
05:30PM 47.5183 -119.8544 89° East 469 540 31,300 900 Climbing Seattle Center
05:31PM 47.5153 -119.6592 91° East 476 548 32,200 900 Climbing Seattle Center
05:32PM 47.5119 -119.4619 91° East 480 552 33,200 900 Climbing Seattle Center
05:33PM 47.5081 -119.2250 91° East 482 555 34,100 540 Climbing Seattle Center
05:35PM 47.4997 -118.8178 92° East 501 577 35,000 240 Climbing Seattle Center
05:36PM 47.4958 -118.6128 92° East 500 575 35,000  Level Seattle Center
05:37PM 47.4897 -118.4092 92° East 497 572 35,000  Level Seattle Center
05:38PM 47.4850 -118.2064 92° East 495 570 35,000  Level Seattle Center
05:39PM 47.4806 -118.0064 92° East 490 564 35,000  Level Seattle Center
05:40PM 47.4747 -117.8047 92° East 491 565 35,000  Level Seattle Center
05:41PM 47.4689 -117.6044 92° East 491 565 35,000  Level Seattle Center
05:42PM 47.4622 -117.4050 93° East 490 564 35,000  Level Seattle Center
05:43PM 47.4531 -117.1661 93° East 494 568 35,000  Level Seattle Center
05:44PM 47.4461 -116.9656 93° East 504 580 35,000  Level Seattle Center
05:45PM 47.4411 -116.7689 92° East 491 565 35,000  Level Seattle Center
05:46PM 47.4336 -116.5633 93° East 494 568 35,000  Level Seattle Center
05:47PM 47.4253 -116.3694 94° East 491 565 35,000  Level Seattle Center
05:48PM 47.4161 -116.1683 94° East 491 565 35,000  Level Seattle Center
05:49PM 47.4058 -115.9275 94° East 493 567 35,000  Level Seattle Center
05:50PM 47.3969 -115.7283 94° East 489 563 35,000  Level Seattle Center
05:51PM 47.3881 -115.5483 94° East 490 564 35,000  Level Seattle Center
05:52PM 47.3783 -115.3506 94° East 485 558 35,000  Level Seattle Center
05:53PM 47.3681 -115.1508 94° East 490 564 35,000  Level Seattle Center
05:54PM 47.3547 -114.9122 95° East 490 564 35,000  Level Seattle Center
05:56PM 47.3439 -114.7136 95° East 490 564 35,000  Level Seattle Center
05:57PM 47.3322 -114.5136 95° East 493 567 35,000  Level Seattle Center
05:58PM 47.3172 -114.2394 95° East 487 560 35,000  Level Salt Lake Center
05:59PM 47.3053 -114.0414 95° East 488 562 35,000  Level Salt Lake Center
06:00PM 47.2903 -113.8083 95° East 483 556 35,000  Level Salt Lake Center
06:02PM 47.2644 -113.4208 95° East 478 550 35,000  Level Salt Lake Center
06:03PM 47.2508 -113.2278 96° East 476 548 35,000  Level Salt Lake Center
06:04PM 47.2372 -113.0319 96° East 483 556 35,000  Level Salt Lake Center
06:05PM 47.2219 -112.8136 96° East 484 557 35,000  Level Salt Lake Center
06:06PM 47.2061 -112.6169 97° East 486 559 35,000  Level Salt Lake Center
06:07PM 47.1917 -112.4197 96° East 487 560 35,000 240 Level Salt Lake Center
06:08PM 47.1764 -112.2244 96° East 486 559 35,500 780 Climbing Salt Lake Center
06:09PM 47.1614 -112.0322 96° East 480 552 36,600 720 Climbing Salt Lake Center
06:10PM 47.1442 -111.8053 96° East 471 542 37,000 180 Climbing Salt Lake Center
06:11PM 47.1275 -111.6128 97° East 476 548 37,000  Level Salt Lake Center
06:12PM 47.1122 -111.4200 97° East 480 552 37,000  Level Salt Lake Center
06:13PM 47.0958 -111.2275 97° East 480 552 37,000  Level Salt Lake Center
06:14PM 47.0775 -111.0342 98° East 483 556 37,000  Level Salt Lake Center
06:15PM 47.0608 -110.8414 97° East 482 555 37,000  Level Salt Lake Center
06:16PM 47.0397 -110.6131 98° East 476 548 37,000  Level Salt Lake Center
06:18PM 47.0214 -110.4250 98° East 469 540 37,000  Level Salt Lake Center
06:19PM 47.0036 -110.2364 98° East 470 541 37,000  Level Salt Lake Center
06:20PM 46.9856 -110.0461 98° East 473 544 37,000  Level Salt Lake Center
06:21PM 46.9656 -109.8550 99° East 477 549 37,000  Level Salt Lake Center
06:22PM 46.9475 -109.6628 98° East 478 550 37,000  Level Salt Lake Center
06:23PM 46.9289 -109.4700 98° East 480 552 37,000  Level Salt Lake Center
06:24PM 46.9022 -109.2394 100° East 480 552 37,000  Level Salt Lake Center
06:25PM 46.8819 -109.0456 99° East 485 558 37,000  Level Salt Lake Center
06:26PM 46.8583 -108.8414 100° East 484 557 37,000  Level Salt Lake Center
06:27PM 46.8378 -108.6494 99° East 482 555 37,000  Level Salt Lake Center
06:28PM 46.8186 -108.4594 98° East 477 549 37,000  Level Salt Lake Center
06:29PM 46.7950 -108.2669 100° East 482 555 37,000  Level Salt Lake Center
06:30PM 46.7725 -108.0728 100° East 486 559 37,000  Level Salt Lake Center
06:32PM 46.7278 -107.6822 99° East 492 566 37,000  Level Salt Lake Center
06:33PM 46.7053 -107.4872 99° East 491 565 37,000  Level Salt Lake Center
06:34PM 46.6758 -107.2522 100° East 493 567 37,000  Level Salt Lake Center
06:35PM 46.6517 -107.0586 100° East 490 564 37,000  Level Salt Lake Center
06:36PM 46.6281 -106.8647 100° East 489 563 37,000  Level Salt Lake Center
06:37PM 46.5997 -106.6706 102° East 490 564 37,000  Level Salt Lake Center
06:38PM 46.5747 -106.4764 101° East 491 565 37,000  Level Salt Lake Center
06:39PM 46.5500 -106.2831 100° East 491 565 37,000  Level Salt Lake Center
06:40PM 46.5242 -106.0922 101° East 488 562 37,000  Level Salt Lake Center
06:41PM 46.4944 -105.8647 101° East 485 558 37,000  Level Salt Lake Center
06:42PM 46.4681 -105.6753 101° East 483 556 37,000  Level Salt Lake Center
06:43PM 46.4414 -105.4867 102° East 482 555 37,000  Level Salt Lake Center
06:44PM 46.4167 -105.3008 101° East 479 551 37,000  Level Salt Lake Center
06:45PM 46.3900 -105.1144 102° East 477 549 37,000  Level Salt Lake Center
06:46PM 46.3628 -104.9281 102° East 476 548 37,000  Level Salt Lake Center
06:47PM 46.3358 -104.7425 102° East 476 548 37,000  Level Salt Lake Center
06:48PM 46.3022 -104.5175 102° East 477 549 37,000  Level Salt Lake Center
06:49PM 46.2744 -104.3303 102° East 477 549 37,000  Level Salt Lake Center
06:50PM 46.2467 -104.1422 102° East 479 551 37,000  Level Salt Lake Center
06:51PM 46.2181 -103.9553 102° East 480 552 37,000  Level Salt Lake Center
06:52PM 46.1894 -103.7678 102° East 480 552 37,000  Level Salt Lake Center
06:53PM 46.1622 -103.5864 102° East 480 552 37,000  Level Minneapolis Center
06:54PM 46.1325 -103.4028 103° East 475 547 37,000  Level Minneapolis Center
06:55PM 46.0956 -103.1753 103° East 477 549 37,000  Level Salt Lake Center
06:57PM 46.0664 -102.9914 103° East 475 547 37,000  Level Salt Lake Center
06:58PM 46.0381 -102.8111 103° East 476 548 37,000  Level Minneapolis Center
06:59PM 46.0053 -102.6308 105° East 477 549 37,000  Level Minneapolis Center
07:00PM 45.9681 -102.4475 106° East 477 549 37,000  Level Minneapolis Center
07:01PM 45.9311 -102.2236 103° East 479 551 37,000  Level Minneapolis Center
07:02PM 45.8994 -102.0381 104° East 479 551 37,000  Level Minneapolis Center
07:03PM 45.8686 -101.8533 103° East 478 550 37,000  Level Minneapolis Center
07:04PM 45.8375 -101.6711 104° East 475 547 37,000  Level Minneapolis Center
07:05PM 45.8047 -101.4886 104° East 474 545 37,000  Level Minneapolis Center
07:06PM 45.7728 -101.3067 104° East 472 543 37,000  Level Minneapolis Center
07:07PM 45.7433 -101.1231 103° East 472 543 37,000  Level Minneapolis Center
07:08PM 45.7039 -100.9025 104° East 475 547 37,000  Level Minneapolis Center
07:09PM 45.6700 -100.7231 105° East 471 542 37,000  Level Minneapolis Center
07:10PM 45.6358 -100.5417 105° East 471 542 37,000  Level Minneapolis Center
07:11PM 45.6019 -100.3628 105° East 467 537 37,000  Level Minneapolis Center
07:12PM 45.5681 -100.1833 105° East 466 536 37,000  Level Minneapolis Center
07:13PM 45.5331 -100.0033 105° East 467 537 37,000  Level Minneapolis Center
07:14PM 45.4986 -99.8242 105° East 466 536 37,000  Level Minneapolis Center
07:15PM 45.4564 -99.6097 106° East 466 536 37,000  Level Minneapolis Center
07:16PM 45.4219 -99.4322 105° East 464 534 37,000  Level Minneapolis Center
07:17PM 45.3869 -99.2564 106° East 461 531 37,000  Level Minneapolis Center
07:18PM 45.3514 -99.0833 106° East 457 526 37,000  Level Minneapolis Center
07:19PM 45.3167 -98.9119 106° East 453 521 37,000  Level Minneapolis Center
07:20PM 45.2814 -98.7400 106° East 453 521 37,000  Level Minneapolis Center
07:21PM 45.2458 -98.5683 106° East 453 521 37,000  Level Minneapolis Center
07:22PM 45.2044 -98.3622 106° East 453 521 37,000  Level Minneapolis Center
07:23PM 45.1692 -98.1911 106° East 452 520 37,000  Level Minneapolis Center
07:24PM 45.1331 -98.0211 107° East 452 520 37,000  Level Minneapolis Center
07:25PM 45.0925 -97.8519 109° East 452 520 37,000  Level Minneapolis Center
07:27PM 45.0556 -97.6814 107° East 452 520 37,000  Level Minneapolis Center
07:28PM 45.0183 -97.5100 107° East 455 524 37,000  Level Minneapolis Center
07:29PM 44.9728 -97.3064 107° East 454 522 37,000  Level Minneapolis Center
07:30PM 44.9342 -97.1336 107° East 459 528 37,000  Level Minneapolis Center
07:31PM 44.8978 -96.9644 107° East 454 522 37,000  Level Minneapolis Center
07:32PM 44.8589 -96.7978 108° East 450 518 37,000  Level Minneapolis Center
07:33PM 44.8211 -96.6300 108° East 449 517 37,000  Level Minneapolis Center
07:34PM 44.7839 -96.4644 108° East 446 513 37,000  Level Minneapolis Center
07:35PM 44.7456 -96.2983 108° East 445 512 37,000  Level Minneapolis Center
07:36PM 44.6992 -96.0958 108° East 450 518 37,000  Level Minneapolis Center
07:37PM 44.6597 -95.9292 108° East 449 517 37,000  Level Minneapolis Center
07:38PM 44.6200 -95.7625 108° East 447 514 37,000  Level Minneapolis Center
07:39PM 44.5800 -95.5947 108° East 452 520 37,000  Level Minneapolis Center
07:40PM 44.5397 -95.4261 108° East 454 522 37,000  Level Minneapolis Center
07:41PM 44.4986 -95.2564 109° East 458 527 37,000  Level Minneapolis Center
07:42PM 44.4594 -95.0883 108° East 454 522 37,000  Level Minneapolis Center
07:43PM 44.4397 -94.9183 99° East 444 511 37,000  Level Minneapolis Center
07:44PM 44.4075 -94.6792 101° East 446 513 37,000  Level Minneapolis Center
07:45PM 44.3850 -94.5256 102° East 444 511 37,000  Level Minneapolis Center
07:46PM 44.3619 -94.3578 101° East 443 510 37,000  Level Minneapolis Center
07:47PM 44.3331 -94.1603 101° East 437 503 37,000  Level Minneapolis Center
07:48PM 44.3081 -93.9950 102° East 438 504 37,000  Level Minneapolis Center
07:49PM 44.2833 -93.8303 102° East 439 505 37,000  Level Minneapolis Center
07:50PM 44.2597 -93.6617 101° East 444 511 37,000  Level Minneapolis Center
07:51PM 44.2344 -93.4950 102° East 444 511 37,000  Level Minneapolis Center
07:53PM 44.2083 -93.3278 102° East 447 514 37,000  Level Minneapolis Center
07:54PM 44.1783 -93.1247 102° East 450 518 37,000  Level Minneapolis Center
07:55PM 44.1522 -92.9542 102° East 454 522 37,000  Level Minneapolis Center
07:56PM 44.1258 -92.7856 102° East 450 518 37,000  Level Minneapolis Center
07:57PM 44.0994 -92.6147 102° East 454 522 37,000  Level Minneapolis Center
07:58PM 44.0719 -92.4464 103° East 451 519 37,000  Level Minneapolis Center
07:59PM 44.0342 -92.2081 102° East 453 521 37,000  Level Minneapolis Center
08:00PM 44.0053 -92.0383 103° East 454 522 37,000  Level Minneapolis Center
08:01PM 43.9778 -91.8667 102° East 458 527 37,000  Level Minneapolis Center
08:02PM 43.9497 -91.6956 103° East 458 527 37,000  Level Minneapolis Center
08:03PM 43.9194 -91.5106 103° East 459 528 37,000  Level Minneapolis Center
08:04PM 43.8869 -91.3417 105° East 459 528 37,000  Level Minneapolis Center
08:05PM 43.8522 -91.1731 106° East 457 526 37,000  Level Minneapolis Center
08:06PM 43.8178 -91.0025 106° East 461 531 37,000  Level Minneapolis Center
08:07PM 43.7750 -90.7986 106° East 462 532 37,000  Level Minneapolis Center
08:08PM 43.7389 -90.6278 106° East 465 535 37,000  Level Minneapolis Center
08:09PM 43.7175 -90.5264 106° East 464 534 37,000  Level Chicago Center
08:10PM 43.6806 -90.3578 107° East 463 533 37,000  Level Chicago Center
08:10PM 43.6664 -90.2908 106° East 460 529 37,000  Level Minneapolis Center
08:11PM 43.6183 -90.0703 107° East 460 529 37,000  Level Minneapolis Center
08:13PM 43.5819 -89.9028 107° East 457 526 37,000  Level Minneapolis Center
08:14PM 43.5436 -89.7322 107° East 462 532 37,000  Level Minneapolis Center
08:15PM 43.4956 -89.5689 112° Southeast 461 531 37,000  Level Minneapolis Center
08:16PM 43.4397 -89.3772 112° Southeast 462 532 37,000  Level Minneapolis Center
08:17PM 43.3925 -89.2144 112° Southeast 460 529 37,000  Level Minneapolis Center
08:18PM 43.3450 -89.0544 112° Southeast 457 526 37,000  Level Minneapolis Center
08:19PM 43.2908 -88.8692 112° Southeast 452 520 37,000  Level Minneapolis Center
08:20PM 43.2361 -88.6869 112° Southeast 449 517 37,000  Level Minneapolis Center
08:21PM 43.1892 -88.5306 112° Southeast 448 516 37,000  Level Minneapolis Center
08:22PM 43.1425 -88.3725 112° Southeast 452 520 37,000  Level Minneapolis Center
08:23PM 43.1081 -88.2075 106° East 456 525 37,000  Level Minneapolis Center
08:24PM 43.0900 -88.0342 98° East 462 532 37,000  Level Minneapolis Center
08:25PM 43.0647 -87.8044 98° East 461 531 37,000  Level Chicago Center
08:26PM 43.0461 -87.6300 98° East 463 533 37,000  Level Chicago Center
08:27PM 43.0225 -87.4264 99° East 465 535 37,000  Level Chicago Center
08:28PM 43.0033 -87.2650 99° East 468 539 37,000  Level Chicago Center
08:29PM 42.9853 -87.0897 98° East 468 539 37,000  Level Chicago Center
08:31PM 42.9636 -86.9167 100° East 465 535 37,000  Level Chicago Center
08:32PM 42.9392 -86.7097 99° East 463 533 37,000  Level Chicago Center
08:33PM 42.9181 -86.5369 99° East 465 535 37,000  Level Chicago Center
08:34PM 42.8975 -86.3669 99° East 459 528 37,000  Level Chicago Center
08:35PM 42.8753 -86.1989 100° East 457 526 37,000  Level Chicago Center
08:36PM 42.8542 -86.0294 100° East 463 533 37,000  Level Chicago Center
08:37PM 42.8297 -85.8267 99° East 461 531 37,000  Level Chicago Center
08:38PM 42.8081 -85.6575 100° East 460 529 37,000  Level Chicago Center
08:39PM 42.7831 -85.4892 101° East 458 527 37,000  Level Chicago Center
08:40PM 42.7319 -85.3372 115° Southeast 444 511 37,000  Level Chicago Center
08:41PM 42.6781 -85.1850 116° Southeast 445 512 37,000  Level Chicago Center
08:42PM 42.6144 -85.0036 115° Southeast 444 511 37,000  Level Chicago Center
08:43PM 42.5603 -84.8519 116° Southeast 446 513 37,000  Level Chicago Center
08:44PM 42.5053 -84.7008 116° Southeast 447 514 37,000  Level Chicago Center
08:45PM 42.4442 -84.5578 120° Southeast 435 501 37,000  Level Chicago Center
08:46PM 42.3592 -84.4494 137° Southeast 420 483 37,000  Level Chicago Center
08:47PM 42.2769 -84.3361 134° Southeast 420 483 37,000  Level Chicago Center
08:48PM 42.1881 -84.1883 129° Southeast 424 488 37,000  Level Chicago Center
08:49PM 42.1142 -84.0694 130° Southeast 417 480 37,000  Level Chicago Center
08:50PM 42.0117 -83.9172 132° Southeast 413 475 37,000  Level Cleveland Center
08:51PM 41.9381 -83.7933 129° Southeast 420 483 37,000  Level Cleveland Center
08:52PM 41.8661 -83.6783 130° Southeast 415 478 37,000  Level Cleveland Center
08:53PM 41.8019 -83.5750 130° Southeast 409 471 37,000  Level Cleveland Center
08:54PM 41.7319 -83.4603 129° Southeast 409 471 37,000  Level Cleveland Center
08:55PM 41.6639 -83.3489 129° Southeast 404 465 37,000  Level Cleveland Center
08:56PM 41.5936 -83.2403 131° Southeast 393 452 37,000  Level Cleveland Center
08:57PM 41.5169 -83.1233 131° Southeast 387 445 37,000  Level Cleveland Center
08:58PM 41.4239 -83.0839 162° South 358 412 37,000  Level Cleveland Center
08:59PM 41.3331 -83.0469 88° East 346 398 37,000  Level Cleveland Center
09:00PM 41.2400 -83.0131 165° South 346 398 37,000  Level Cleveland Center
09:01PM 41.1469 -82.9739 162° South 346 398 37,000  Level Cleveland Center
09:02PM 41.0561 -82.9347 162° South 346 398 37,000  Level Cleveland Center
09:03PM 40.9697 -82.8739 152° Southeast 351 404 37,000  Level Cleveland Center
09:05PM 40.8414 -82.6242 124° Southeast 409 471 37,000  Level Indianapolis Center
09:06PM 40.7761 -82.5003 125° Southeast 409 471 37,000  Level Indianapolis Center
09:07PM 40.7097 -82.3764 125° Southeast 411 473 37,000  Level Indianapolis Center
09:08PM 40.6439 -82.2522 125° Southeast 413 475 37,000  Level Indianapolis Center
09:10PM 40.5764 -82.1258 125° Southeast 418 481 37,000  Level Indianapolis Center
09:11PM 40.5083 -82.0003 125° Southeast 420 483 37,000  Level Indianapolis Center
09:12PM 40.4406 -81.8753 125° Southeast 418 481 37,000  Level Indianapolis Center
09:13PM 40.3728 -81.7506 125° Southeast 417 480 37,000  Level Indianapolis Center
09:14PM 40.3047 -81.6242 125° Southeast 421 484 37,000  Level Indianapolis Center
09:15PM 40.2367 -81.5006 126° Southeast 416 479 37,000  Level Indianapolis Center
09:16PM 40.1692 -81.3772 126° Southeast 415 478 37,000  Level Indianapolis Center
09:17PM 40.1011 -81.2531 126° Southeast 416 479 37,000 -60 Level Indianapolis Center
09:18PM 40.0214 -81.1103 126° Southeast 413 475 36,900 -660 Descending Indianapolis Center
09:19PM 39.9525 -80.9872 126° Southeast 416 479 35,700 -1,200 Descending Indianapolis Center
09:20PM 39.8881 -80.8706 126° Southeast 417 480 34,500 -1,260 Descending Indianapolis Center
09:21PM 39.8183 -80.7469 126° Southeast 422 486 33,200 -1,260 Descending Indianapolis Center
09:22PM 39.7481 -80.6208 126° Southeast 428 493 32,000 -1,260 Descending Indianapolis Center
09:23PM 39.6769 -80.4964 127° Southeast 428 493 30,700 -1,380 Descending Indianapolis Center
09:25PM 39.5475 -80.1847 118° Southeast 419 482 27,600 -1,080 Descending Cleveland Center
09:26PM 39.4950 -80.0156 112° Southeast 419 482 27,000 -300 Descending Washington Center
09:27PM 39.4500 -79.8731 112° Southeast 419 482 27,000  Level Washington Center
09:28PM 39.4050 -79.7308 112° Southeast 419 482 27,000  Level Washington Center
09:29PM 39.3619 -79.5886 111° Southeast 419 482 27,000  Level Washington Center
09:30PM 39.3167 -79.4439 112° Southeast 424 488 27,000  Level Washington Center
09:31PM 39.2711 -79.2994 112° Southeast 424 488 27,000  Level Washington Center
09:32PM 39.2361 -79.1503 107° East 424 488 27,000 -600 Level Washington Center
09:33PM 39.2239 -78.9917 96° East 424 488 25,800 -1,680 Descending Washington Center
09:34PM 39.2114 -78.8411 96° East 429 494 23,700 -2,100 Descending Washington Center
09:35PM 39.1967 -78.6931 97° East 424 488 21,700 -1,980 Descending Washington Center
09:36PM 39.1814 -78.5506 98° East 413 475 19,700 -2,040 Descending Washington Center
09:37PM 39.1681 -78.4133 97° East 400 460 17,700 -1,380 Descending Washington Center
09:38PM 39.1439 -78.2839 103° East 379 436 17,000 -720 Descending Washington Center
09:39PM 39.1133 -78.1597 108° East 367 422 16,300 -1,320 Descending Washington Center
09:40PM 39.0803 -78.0383 109° East 362 417 14,400 -1,440 Descending Washington Center
09:41PM 39.0533 -77.9306 108° East 344 396 13,500 -1,200 Descending Washington Center
09:42PM 39.0300 -77.8361 108° East 315 362 12,100 -1,380 Descending Washington Center
09:43PM 39.0008 -77.7258 109° East 298 343 10,700 -1,200 Descending Washington Center
09:44PM 38.9794 -77.6369 107° East 287 330 9,800 -1,260 Descending Washington Center
09:45PM 38.9497 -77.5428 112° Southeast 269 310 8,300 -1,440 Descending Washington Center
09:46PM 38.9667 -77.4667 74° East 267 307 7,100 -1,380 Descending Potomac TRACON
09:47PM 39.0000 -77.3833 63° Northeast 267 307 5,700 -1,200 Descending Potomac TRACON
09:48PM 39.0333 -77.3167 57° Northeast 251 289 4,900 -960 Descending Potomac TRACON
09:49PM 39.0500 -77.2333 76° East 224 258 3,900 -960 Descending Potomac TRACON
09:50PM 39.0167 -77.2000 142° Southeast 183 211 3,000 -480 Descending Potomac TRACON
09:51PM 38.9833 -77.1667 142° Southeast 176 203 3,000 -480 Level Potomac TRACON
09:52PM 38.9500 -77.1167 131° Southeast 154 177 2,100 -840 Descending Potomac TRACON
09:53PM 38.9167 -77.1000 159° South 139 160 1,400 -840 Descending Potomac TRACON
09:54PM 38.8833 -77.0500 131° Southeast 140 161 600 -840 Descending Potomac TRACON
09:56PM 38.8519 -77.0377 180° South  Level Estimated
10:03PM 38.8500 -77.0333 North  Level FlightAware Approximate
10:04PM 38.8519 -77.0377 North  Level Estimated